sensor_id;sensor_type;location;lat;lon;timestamp;pressure;altitude;pressure_sealevel;temperature;humidity
3697;BME280;60662;48.810;8.872;2022-11-11T07:30:21;98133.16;;;3.62;87.39
3697;BME280;60662;48.810;8.872;2022-11-11T07:38:30;98122.34;;;4.39;86.93
3697;BME280;60662;48.810;8.872;2022-11-11T07:45:05;98103.34;;;4.35;84.76
3697;BME280;60662;48.810;8.872;2022-11-11T07:46:07;98128.44;;;4.60;85.55
3697;BME280;60662;48.810;8.872;2022-11-11T07:52:52;98103.53;;;5.16;82.18
3697;BME280;60662;48.810;8.872;2022-11-11T07:53:53;98129.44;;;5.28;81.49
3697;BME280;60662;48.810;8.872;2022-11-11T07:54:55;98125.09;;;5.30;81.59
3697;BME280;60662;48.810;8.872;2022-11-11T08:00:59;98118.94;;;5.98;79.99
3697;BME280;60662;48.810;8.872;2022-11-11T08:02:10;98118.06;;;6.14;79.90
3697;BME280;60662;48.810;8.872;2022-11-11T08:03:11;98122.31;;;6.35;79.62
3697;BME280;60662;48.810;8.872;2022-11-11T08:04:13;98130.03;;;6.51;78.86
3697;BME280;60662;48.810;8.872;2022-11-11T08:10:54;98131.75;;;6.53;78.29
3697;BME280;60662;48.810;8.872;2022-11-11T08:11:56;98129.91;;;6.73;77.07
3697;BME280;60662;48.810;8.872;2022-11-11T08:13:22;98124.03;;;6.38;77.07
3697;BME280;60662;48.810;8.872;2022-11-11T08:14:41;98131.00;;;6.31;76.67
3697;BME280;60662;48.810;8.872;2022-11-11T08:15:43;98129.16;;;6.57;77.32
3697;BME280;60662;48.810;8.872;2022-11-11T08:16:44;98129.91;;;6.76;75.52
3697;BME280;60662;48.810;8.872;2022-11-11T08:17:46;98132.44;;;6.85;75.16
3697;BME280;60662;48.810;8.872;2022-11-11T08:18:47;98128.91;;;6.95;75.31
3697;BME280;60662;48.810;8.872;2022-11-11T08:19:48;98139.81;;;7.45;74.57
3697;BME280;60662;48.810;8.872;2022-11-11T08:20:50;98136.13;;;7.68;73.92
3697;BME280;60662;48.810;8.872;2022-11-11T08:21:55;98134.25;;;7.84;73.17
3697;BME280;60662;48.810;8.872;2022-11-11T08:22:57;98144.53;;;7.98;73.02
3697;BME280;60662;48.810;8.872;2022-11-11T08:24:19;98138.97;;;8.30;72.37
3697;BME280;60662;48.810;8.872;2022-11-11T08:25:40;98136.06;;;8.58;71.43
3697;BME280;60662;48.810;8.872;2022-11-11T08:26:42;98131.63;;;8.65;71.33
3697;BME280;60662;48.810;8.872;2022-11-11T08:27:43;98133.22;;;8.75;70.82
3697;BME280;60662;48.810;8.872;2022-11-11T08:28:44;98123.47;;;8.91;70.15
3697;BME280;60662;48.810;8.872;2022-11-11T08:29:50;98120.00;;;8.89;70.00
3697;BME280;60662;48.810;8.872;2022-11-11T08:30:52;98132.03;;;8.99;69.73
3697;BME280;60662;48.810;8.872;2022-11-11T08:31:53;98125.50;;;8.69;70.13
3697;BME280;60662;48.810;8.872;2022-11-11T08:33:02;98126.25;;;8.79;70.14
3697;BME280;60662;48.810;8.872;2022-11-11T08:34:23;98120.16;;;8.80;70.14
3697;BME280;60662;48.810;8.872;2022-11-11T08:35:26;98125.25;;;8.86;70.50
3697;BME280;60662;48.810;8.872;2022-11-11T08:36:27;98125.53;;;8.68;71.25
3697;BME280;60662;48.810;8.872;2022-11-11T08:37:29;98119.13;;;8.89;71.06
3697;BME280;60662;48.810;8.872;2022-11-11T08:38:30;98116.16;;;8.53;71.36
3697;BME280;60662;48.810;8.872;2022-11-11T08:39:32;98129.81;;;8.70;70.43
3697;BME280;60662;48.810;8.872;2022-11-11T08:40:36;98120.53;;;8.50;71.05
3697;BME280;60662;48.810;8.872;2022-11-11T08:41:37;98122.31;;;8.47;71.19
3697;BME280;60662;48.810;8.872;2022-11-11T08:42:39;98122.81;;;8.75;71.10
3697;BME280;60662;48.810;8.872;2022-11-11T08:43:40;98118.25;;;8.91;71.52
3697;BME280;60662;48.810;8.872;2022-11-11T08:44:42;98121.53;;;9.59;69.51
3697;BME280;60662;48.810;8.872;2022-11-11T08:45:43;98121.75;;;9.95;68.25
3697;BME280;60662;48.810;8.872;2022-11-11T08:46:45;98130.38;;;9.99;67.65
3697;BME280;60662;48.810;8.872;2022-11-11T08:47:46;98121.69;;;10.00;67.83
3697;BME280;60662;48.810;8.872;2022-11-11T08:48:48;98118.72;;;9.70;69.02
3697;BME280;60662;48.810;8.872;2022-11-11T08:49:49;98124.56;;;9.32;69.73
3697;BME280;60662;48.810;8.872;2022-11-11T08:50:52;98117.38;;;9.48;69.39
3697;BME280;60662;48.810;8.872;2022-11-11T08:51:53;98118.94;;;9.59;69.27
3697;BME280;60662;48.810;8.872;2022-11-11T08:52:56;98125.09;;;10.02;68.36
3697;BME280;60662;48.810;8.872;2022-11-11T08:53:57;98115.97;;;10.26;67.15
3697;BME280;60662;48.810;8.872;2022-11-11T08:54:58;98129.53;;;9.98;68.08
3697;BME280;60662;48.810;8.872;2022-11-11T08:56:02;98115.44;;;9.58;69.49
3697;BME280;60662;48.810;8.872;2022-11-11T08:57:03;98122.31;;;9.11;70.19
3697;BME280;60662;48.810;8.872;2022-11-11T08:58:05;98127.97;;;9.38;70.41
3697;BME280;60662;48.810;8.872;2022-11-11T08:59:07;98118.19;;;9.99;69.05
3697;BME280;60662;48.810;8.872;2022-11-11T09:00:11;98130.63;;;10.75;66.79
3697;BME280;60662;48.810;8.872;2022-11-11T09:01:13;98127.16;;;11.50;65.04
3697;BME280;60662;48.810;8.872;2022-11-11T09:02:15;98124.00;;;12.06;63.44
3697;BME280;60662;48.810;8.872;2022-11-11T09:03:16;98125.72;;;12.39;62.11
3697;BME280;60662;48.810;8.872;2022-11-11T09:04:18;98123.84;;;12.74;61.57
3697;BME280;60662;48.810;8.872;2022-11-11T09:05:40;98126.16;;;13.13;60.82
3697;BME280;60662;48.810;8.872;2022-11-11T09:06:41;98110.47;;;12.53;61.21
3697;BME280;60662;48.810;8.872;2022-11-11T09:07:46;98139.38;;;13.09;60.58
3697;BME280;60662;48.810;8.872;2022-11-11T09:08:47;98135.28;;;13.57;60.17
3697;BME280;60662;48.810;8.872;2022-11-11T09:09:48;98122.25;;;13.25;60.64
3697;BME280;60662;48.810;8.872;2022-11-11T09:10:50;98124.00;;;13.26;60.52
3697;BME280;60662;48.810;8.872;2022-11-11T09:11:51;98124.13;;;14.27;58.19
3697;BME280;60662;48.810;8.872;2022-11-11T09:12:59;98125.34;;;14.66;55.93
3697;BME280;60662;48.810;8.872;2022-11-11T09:14:01;98124.53;;;14.40;56.33
3697;BME280;60662;48.810;8.872;2022-11-11T09:15:03;98124.50;;;14.64;56.29
3697;BME280;60662;48.810;8.872;2022-11-11T09:16:05;98127.66;;;14.50;56.88
3697;BME280;60662;48.810;8.872;2022-11-11T09:17:06;98128.13;;;14.37;57.71
3697;BME280;60662;48.810;8.872;2022-11-11T09:18:08;98127.44;;;14.56;58.01
3697;BME280;60662;48.810;8.872;2022-11-11T09:19:10;98122.94;;;14.83;57.49
3697;BME280;60662;48.810;8.872;2022-11-11T09:20:12;98131.19;;;16.06;54.82
3697;BME280;60662;48.810;8.872;2022-11-11T09:21:13;98117.94;;;16.07;53.84
3697;BME280;60662;48.810;8.872;2022-11-11T09:22:15;98119.00;;;15.82;54.33
3697;BME280;60662;48.810;8.872;2022-11-11T09:23:16;98122.25;;;16.49;53.02
3697;BME280;60662;48.810;8.872;2022-11-11T09:24:18;98129.25;;;16.89;52.46
3697;BME280;60662;48.810;8.872;2022-11-11T09:25:19;98112.09;;;17.53;51.71
3697;BME280;60662;48.810;8.872;2022-11-11T09:26:21;98124.06;;;18.64;48.91
3697;BME280;60662;48.810;8.872;2022-11-11T09:27:23;98126.81;;;17.94;49.84
3697;BME280;60662;48.810;8.872;2022-11-11T09:28:30;98119.94;;;19.08;47.84
3697;BME280;60662;48.810;8.872;2022-11-11T09:29:34;98125.47;;;20.41;45.25
3697;BME280;60662;48.810;8.872;2022-11-11T09:30:35;98129.81;;;21.14;43.66
3697;BME280;60662;48.810;8.872;2022-11-11T09:31:38;98119.84;;;21.73;42.70
3697;BME280;60662;48.810;8.872;2022-11-11T09:32:47;98119.13;;;22.09;41.85
3697;BME280;60662;48.810;8.872;2022-11-11T09:33:49;98121.47;;;21.88;41.56
3697;BME280;60662;48.810;8.872;2022-11-11T09:34:51;98122.53;;;22.24;41.07
3697;BME280;60662;48.810;8.872;2022-11-11T09:35:56;98123.03;;;20.38;43.44
3697;BME280;60662;48.810;8.872;2022-11-11T09:36:58;98127.16;;;21.00;43.23
3697;BME280;60662;48.810;8.872;2022-11-11T09:38:00;98121.22;;;20.38;43.91
3697;BME280;60662;48.810;8.872;2022-11-11T09:39:02;98125.63;;;19.32;46.35
3697;BME280;60662;48.810;8.872;2022-11-11T09:40:04;98125.38;;;20.28;44.74
3697;BME280;60662;48.810;8.872;2022-11-11T09:41:21;98108.31;;;20.61;43.83
3697;BME280;60662;48.810;8.872;2022-11-11T09:42:47;98126.91;;;21.99;42.24
3697;BME280;60662;48.810;8.872;2022-11-11T09:43:58;98127.75;;;22.00;41.15
3697;BME280;60662;48.810;8.872;2022-11-11T09:46:31;98132.41;;;22.87;40.41
3697;BME280;60662;48.810;8.872;2022-11-11T09:50:24;98130.47;;;22.39;41.45
3697;BME280;60662;48.810;8.872;2022-11-11T09:51:36;98134.69;;;22.28;41.67
3697;BME280;60662;48.810;8.872;2022-11-11T09:52:59;98138.38;;;22.13;41.53
3697;BME280;60662;48.810;8.872;2022-11-11T09:54:07;98125.84;;;21.34;42.47
3697;BME280;60662;48.810;8.872;2022-11-11T09:55:42;98123.59;;;21.56;42.89
3697;BME280;60662;48.810;8.872;2022-11-11T09:56:45;98133.09;;;20.76;43.47
3697;BME280;60662;48.810;8.872;2022-11-11T09:57:56;98123.50;;;20.30;44.97
3697;BME280;60662;48.810;8.872;2022-11-11T10:00:21;98115.25;;;20.93;43.87
3697;BME280;60662;48.810;8.872;2022-11-11T10:01:25;98113.72;;;20.88;43.81
3697;BME280;60662;48.810;8.872;2022-11-11T10:02:45;98099.81;;;21.12;43.57
3697;BME280;60662;48.810;8.872;2022-11-11T10:04:16;98116.56;;;21.27;42.86
3697;BME280;60662;48.810;8.872;2022-11-11T10:05:32;98115.56;;;19.39;46.91
3697;BME280;60662;48.810;8.872;2022-11-11T10:06:35;98117.06;;;20.63;45.63
3697;BME280;60662;48.810;8.872;2022-11-11T10:07:49;98112.94;;;21.83;43.65
3697;BME280;60662;48.810;8.872;2022-11-11T10:09:17;98117.19;;;21.73;43.32
3697;BME280;60662;48.810;8.872;2022-11-11T10:10:33;98118.09;;;22.25;42.34
3697;BME280;60662;48.810;8.872;2022-11-11T10:12:55;98110.53;;;22.31;42.73
3697;BME280;60662;48.810;8.872;2022-11-11T10:13:57;98122.13;;;22.56;41.95
3697;BME280;60662;48.810;8.872;2022-11-11T10:14:58;98105.09;;;22.20;42.45
3697;BME280;60662;48.810;8.872;2022-11-11T10:19:33;98104.97;;;21.96;43.22
3697;BME280;60662;48.810;8.872;2022-11-11T10:20:41;98099.56;;;22.23;42.98
3697;BME280;60662;48.810;8.872;2022-11-11T10:21:50;98100.59;;;21.69;43.28
3697;BME280;60662;48.810;8.872;2022-11-11T10:23:14;98107.28;;;21.88;43.68
3697;BME280;60662;48.810;8.872;2022-11-11T10:24:31;98054.03;;;22.15;43.27
3697;BME280;60662;48.810;8.872;2022-11-11T10:25:51;98089.88;;;22.35;42.67
3697;BME280;60662;48.810;8.872;2022-11-11T10:26:53;98086.28;;;22.49;42.89
3697;BME280;60662;48.810;8.872;2022-11-11T10:28:00;98110.53;;;22.57;42.86
3697;BME280;60662;48.810;8.872;2022-11-11T10:29:07;98112.38;;;22.94;41.93
3697;BME280;60662;48.810;8.872;2022-11-11T10:30:21;98118.97;;;23.01;41.72
3697;BME280;60662;48.810;8.872;2022-11-11T10:31:30;98113.97;;;22.96;42.16
3697;BME280;60662;48.810;8.872;2022-11-11T10:32:33;98109.34;;;23.11;41.05
3697;BME280;60662;48.810;8.872;2022-11-11T10:33:49;98114.16;;;22.30;42.71
3697;BME280;60662;48.810;8.872;2022-11-11T10:34:51;98120.09;;;22.34;42.49
3697;BME280;60662;48.810;8.872;2022-11-11T10:35:55;98112.59;;;21.75;43.37
3697;BME280;60662;48.810;8.872;2022-11-11T10:37:01;98093.75;;;21.37;43.72
3697;BME280;60662;48.810;8.872;2022-11-11T10:39:17;98121.16;;;19.95;46.23
3697;BME280;60662;48.810;8.872;2022-11-11T10:40:24;98121.50;;;18.79;48.65
3697;BME280;60662;48.810;8.872;2022-11-11T10:41:37;98123.31;;;18.78;49.71
3697;BME280;60662;48.810;8.872;2022-11-11T10:42:39;98128.88;;;19.37;48.38
3697;BME280;60662;48.810;8.872;2022-11-11T10:43:44;98129.44;;;19.42;48.34
3697;BME280;60662;48.810;8.872;2022-11-11T10:44:50;98111.16;;;19.54;48.33
3697;BME280;60662;48.810;8.872;2022-11-11T10:47:25;98117.63;;;19.95;49.00
3697;BME280;60662;48.810;8.872;2022-11-11T10:50:01;98099.88;;;19.04;50.79
3697;BME280;60662;48.810;8.872;2022-11-11T10:51:05;98115.78;;;20.11;49.96
3697;BME280;60662;48.810;8.872;2022-11-11T10:52:31;98112.56;;;19.29;50.76
3697;BME280;60662;48.810;8.872;2022-11-11T10:53:42;98106.91;;;18.71;53.37
3697;BME280;60662;48.810;8.872;2022-11-11T10:57:17;98103.22;;;20.73;46.77
3697;BME280;60662;48.810;8.872;2022-11-11T10:58:42;98100.22;;;21.06;47.20
3697;BME280;60662;48.810;8.872;2022-11-11T10:59:56;98096.56;;;20.94;46.56
3697;BME280;60662;48.810;8.872;2022-11-11T11:01:05;98103.53;;;21.64;45.13
3697;BME280;60662;48.810;8.872;2022-11-11T11:02:21;98107.34;;;22.52;42.75
3697;BME280;60662;48.810;8.872;2022-11-11T11:03:29;98100.72;;;22.32;43.04
3697;BME280;60662;48.810;8.872;2022-11-11T11:04:49;98083.16;;;21.65;44.11
3697;BME280;60662;48.810;8.872;2022-11-11T11:06:05;98080.84;;;22.12;42.71
3697;BME280;60662;48.810;8.872;2022-11-11T11:07:13;98092.97;;;22.16;42.85
3697;BME280;60662;48.810;8.872;2022-11-11T11:08:23;98095.25;;;20.44;45.74
3697;BME280;60662;48.810;8.872;2022-11-11T11:09:54;98100.16;;;20.06;46.91
3697;BME280;60662;48.810;8.872;2022-11-11T11:12:30;98093.63;;;19.98;47.21
3697;BME280;60662;48.810;8.872;2022-11-11T11:13:44;98087.81;;;20.92;45.64
3697;BME280;60662;48.810;8.872;2022-11-11T11:14:53;98093.63;;;20.41;45.38
3697;BME280;60662;48.810;8.872;2022-11-11T11:16:04;98085.03;;;20.23;46.84
3697;BME280;60662;48.810;8.872;2022-11-11T11:17:29;98091.47;;;20.19;47.71
3697;BME280;60662;48.810;8.872;2022-11-11T11:18:32;98090.75;;;22.10;44.22
3697;BME280;60662;48.810;8.872;2022-11-11T11:19:34;98091.84;;;21.67;43.74
3697;BME280;60662;48.810;8.872;2022-11-11T11:20:35;98088.63;;;22.41;43.20
3697;BME280;60662;48.810;8.872;2022-11-11T11:21:57;98081.16;;;22.72;41.43
3697;BME280;60662;48.810;8.872;2022-11-11T11:23:02;98083.28;;;22.28;43.36
3697;BME280;60662;48.810;8.872;2022-11-11T11:24:19;98086.28;;;22.36;43.30
3697;BME280;60662;48.810;8.872;2022-11-11T11:25:21;98082.13;;;22.58;42.21
3697;BME280;60662;48.810;8.872;2022-11-11T11:26:23;98083.81;;;22.72;42.31
3697;BME280;60662;48.810;8.872;2022-11-11T11:27:25;98092.66;;;22.33;42.47
3697;BME280;60662;48.810;8.872;2022-11-11T11:28:27;98087.34;;;22.33;42.97
3697;BME280;60662;48.810;8.872;2022-11-11T11:29:34;98093.81;;;22.29;42.61
3697;BME280;60662;48.810;8.872;2022-11-11T11:30:36;98089.25;;;20.11;45.99
3697;BME280;60662;48.810;8.872;2022-11-11T11:31:38;98090.00;;;19.38;48.76
3697;BME280;60662;48.810;8.872;2022-11-11T11:32:41;98079.47;;;18.40;51.62
3697;BME280;60662;48.810;8.872;2022-11-11T11:33:55;98082.50;;;18.66;51.17
3697;BME280;60662;48.810;8.872;2022-11-11T11:34:56;98087.13;;;18.29;51.64
3697;BME280;60662;48.810;8.872;2022-11-11T11:36:14;98076.69;;;18.10;51.20
3697;BME280;60662;48.810;8.872;2022-11-11T11:37:18;98092.59;;;18.26;51.33
3697;BME280;60662;48.810;8.872;2022-11-11T11:38:19;98093.59;;;18.57;51.38
3697;BME280;60662;48.810;8.872;2022-11-11T11:39:31;98091.50;;;18.30;51.15
3697;BME280;60662;48.810;8.872;2022-11-11T11:40:55;98062.13;;;17.84;51.87
3697;BME280;60662;48.810;8.872;2022-11-11T11:41:57;98025.00;;;16.99;53.68
3697;BME280;60662;48.810;8.872;2022-11-11T11:42:58;98082.53;;;17.10;54.92
3697;BME280;60662;48.810;8.872;2022-11-11T11:44:00;98089.97;;;17.91;53.44
3697;BME280;60662;48.810;8.872;2022-11-11T11:46:37;98085.75;;;17.34;55.59
3697;BME280;60662;48.810;8.872;2022-11-11T11:50:43;98084.28;;;16.92;56.58
3697;BME280;60662;48.810;8.872;2022-11-11T11:54:28;98075.75;;;17.58;54.41
3697;BME280;60662;48.810;8.872;2022-11-11T11:55:44;98086.16;;;16.31;57.53
3697;BME280;60662;48.810;8.872;2022-11-11T11:56:51;98083.41;;;16.72;57.63
3697;BME280;60662;48.810;8.872;2022-11-11T11:59:10;98079.47;;;17.19;56.83
3697;BME280;60662;48.810;8.872;2022-11-11T12:00:30;98079.38;;;18.26;54.57
3697;BME280;60662;48.810;8.872;2022-11-11T12:04:33;98084.97;;;16.95;56.97
3697;BME280;60662;48.810;8.872;2022-11-11T12:05:48;98074.91;;;17.04;56.64
3697;BME280;60662;48.810;8.872;2022-11-11T12:07:18;98085.63;;;17.01;56.83
3697;BME280;60662;48.810;8.872;2022-11-11T12:10:23;98083.69;;;16.66;57.50
3697;BME280;60662;48.810;8.872;2022-11-11T12:11:41;98080.88;;;18.48;53.91
3697;BME280;60662;48.810;8.872;2022-11-11T12:13:11;98081.19;;;18.57;53.41
3697;BME280;60662;48.810;8.872;2022-11-11T12:14:45;98075.75;;;18.11;54.38
3697;BME280;60662;48.810;8.872;2022-11-11T12:20:03;98075.28;;;19.79;51.03
3697;BME280;60662;48.810;8.872;2022-11-11T12:21:15;98071.50;;;18.58;52.87
3697;BME280;60662;48.810;8.872;2022-11-11T12:26:56;98068.94;;;19.04;53.41
3697;BME280;60662;48.810;8.872;2022-11-11T12:28:14;98074.38;;;19.64;52.65
3697;BME280;60662;48.810;8.872;2022-11-11T12:32:28;98068.50;;;20.90;47.95
3697;BME280;60662;48.810;8.872;2022-11-11T12:37:20;98068.03;;;18.06;54.41
3697;BME280;60662;48.810;8.872;2022-11-11T12:38:47;98044.59;;;17.83;54.08
3697;BME280;60662;48.810;8.872;2022-11-11T12:40:03;98077.13;;;18.68;52.35
3697;BME280;60662;48.810;8.872;2022-11-11T12:44:18;98076.00;;;20.11;50.86
3697;BME280;60662;48.810;8.872;2022-11-11T12:45:50;98074.19;;;20.69;49.03
3697;BME280;60662;48.810;8.872;2022-11-11T13:02:10;98069.31;;;19.75;51.43
3697;BME280;60662;48.810;8.872;2022-11-11T13:03:17;98068.69;;;19.55;51.67
3697;BME280;60662;48.810;8.872;2022-11-11T13:06:22;98067.84;;;18.27;55.27
3697;BME280;60662;48.810;8.872;2022-11-11T13:09:22;98072.91;;;19.44;53.46
3697;BME280;60662;48.810;8.872;2022-11-11T13:14:37;98070.88;;;16.96;57.85
3697;BME280;60662;48.810;8.872;2022-11-11T13:15:42;98062.88;;;16.41;58.77
3697;BME280;60662;48.810;8.872;2022-11-11T13:16:44;98035.47;;;16.81;58.74
3697;BME280;60662;48.810;8.872;2022-11-11T13:17:46;98071.03;;;18.34;55.89
3697;BME280;60662;48.810;8.872;2022-11-11T13:18:55;98070.38;;;19.26;53.81
3697;BME280;60662;48.810;8.872;2022-11-11T13:21:28;98064.00;;;17.29;56.28
3697;BME280;60662;48.810;8.872;2022-11-11T13:22:31;98050.53;;;16.98;56.16
3697;BME280;60662;48.810;8.872;2022-11-11T13:23:33;98070.97;;;16.74;57.91
3697;BME280;60662;48.810;8.872;2022-11-11T13:24:35;98052.69;;;16.52;57.99
3697;BME280;60662;48.810;8.872;2022-11-11T13:25:40;98066.22;;;15.63;60.15
3697;BME280;60662;48.810;8.872;2022-11-11T13:27:03;98045.19;;;15.84;59.92
3697;BME280;60662;48.810;8.872;2022-11-11T13:28:14;98070.03;;;16.18;59.84
3697;BME280;60662;48.810;8.872;2022-11-11T13:31:02;98069.47;;;15.91;61.17
3697;BME280;60662;48.810;8.872;2022-11-11T13:32:11;98068.63;;;16.30;60.65
3697;BME280;60662;48.810;8.872;2022-11-11T13:33:23;98063.63;;;16.24;59.84
3697;BME280;60662;48.810;8.872;2022-11-11T13:34:32;98063.00;;;15.57;60.42
3697;BME280;60662;48.810;8.872;2022-11-11T13:35:38;98063.31;;;15.06;61.98
3697;BME280;60662;48.810;8.872;2022-11-11T13:36:49;98054.44;;;14.86;62.82
3697;BME280;60662;48.810;8.872;2022-11-11T13:37:51;98064.88;;;15.32;61.78
3697;BME280;60662;48.810;8.872;2022-11-11T13:38:57;98064.06;;;15.10;62.62
3697;BME280;60662;48.810;8.872;2022-11-11T13:40:05;98039.84;;;15.22;62.12
3697;BME280;60662;48.810;8.872;2022-11-11T13:41:08;98058.50;;;15.79;60.91
3697;BME280;60662;48.810;8.872;2022-11-11T13:42:12;98064.03;;;16.14;60.01
3697;BME280;60662;48.810;8.872;2022-11-11T13:43:32;98060.56;;;15.73;60.38
3697;BME280;60662;48.810;8.872;2022-11-11T13:44:49;98067.22;;;15.18;61.98
3697;BME280;60662;48.810;8.872;2022-11-11T13:45:53;98066.13;;;15.24;61.90
3697;BME280;60662;48.810;8.872;2022-11-11T13:47:01;98035.41;;;15.65;60.11
3697;BME280;60662;48.810;8.872;2022-11-11T13:48:03;98063.44;;;15.66;60.04
3697;BME280;60662;48.810;8.872;2022-11-11T13:49:09;98047.91;;;15.60;59.85
3697;BME280;60662;48.810;8.872;2022-11-11T13:50:20;98065.13;;;16.10;59.42
3697;BME280;60662;48.810;8.872;2022-11-11T13:51:39;98066.34;;;16.22;58.90
3697;BME280;60662;48.810;8.872;2022-11-11T13:52:59;98064.03;;;16.14;58.43
3697;BME280;60662;48.810;8.872;2022-11-11T13:54:04;98049.06;;;16.93;57.43
3697;BME280;60662;48.810;8.872;2022-11-11T13:55:08;98065.63;;;16.57;56.05
3697;BME280;60662;48.810;8.872;2022-11-11T13:56:36;98065.78;;;16.73;55.87
3697;BME280;60662;48.810;8.872;2022-11-11T13:57:49;98068.22;;;16.77;56.64
3697;BME280;60662;48.810;8.872;2022-11-11T13:58:52;98054.31;;;16.16;56.39
3697;BME280;60662;48.810;8.872;2022-11-11T14:00:00;98044.75;;;15.93;56.21
3697;BME280;60662;48.810;8.872;2022-11-11T14:01:05;98050.00;;;15.95;56.86
3697;BME280;60662;48.810;8.872;2022-11-11T14:02:35;98073.47;;;15.58;58.04
3697;BME280;60662;48.810;8.872;2022-11-11T14:05:14;98061.84;;;15.21;58.96
3697;BME280;60662;48.810;8.872;2022-11-11T14:08:51;98062.28;;;15.10;58.90
3697;BME280;60662;48.810;8.872;2022-11-11T14:09:57;98061.59;;;15.05;59.40
3697;BME280;60662;48.810;8.872;2022-11-11T14:11:00;98060.00;;;15.23;58.59
3697;BME280;60662;48.810;8.872;2022-11-11T14:12:21;98060.25;;;14.95;59.91
3697;BME280;60662;48.810;8.872;2022-11-11T14:14:43;98064.91;;;15.53;58.46
3697;BME280;60662;48.810;8.872;2022-11-11T14:15:51;98050.69;;;15.98;57.90
3697;BME280;60662;48.810;8.872;2022-11-11T14:16:59;98056.34;;;16.29;56.83
3697;BME280;60662;48.810;8.872;2022-11-11T14:18:09;98057.25;;;16.48;56.78
3697;BME280;60662;48.810;8.872;2022-11-11T14:21:47;98057.50;;;17.00;55.23
3697;BME280;60662;48.810;8.872;2022-11-11T14:22:51;98045.44;;;17.13;54.71
3697;BME280;60662;48.810;8.872;2022-11-11T14:23:56;98055.53;;;17.22;55.34
3697;BME280;60662;48.810;8.872;2022-11-11T14:25:20;98056.38;;;17.23;54.12
3697;BME280;60662;48.810;8.872;2022-11-11T14:26:24;98048.84;;;17.15;54.31
3697;BME280;60662;48.810;8.872;2022-11-11T14:27:29;98049.72;;;17.16;54.27
3697;BME280;60662;48.810;8.872;2022-11-11T14:28:33;98055.03;;;16.96;53.77
3697;BME280;60662;48.810;8.872;2022-11-11T14:30:09;98048.88;;;16.96;54.35
3697;BME280;60662;48.810;8.872;2022-11-11T14:36:42;98045.19;;;17.18;53.10
3697;BME280;60662;48.810;8.872;2022-11-11T14:37:59;98053.13;;;17.18;53.88
3697;BME280;60662;48.810;8.872;2022-11-11T14:39:15;98049.31;;;16.87;54.80
3697;BME280;60662;48.810;8.872;2022-11-11T14:40:24;98061.56;;;16.11;56.38
3697;BME280;60662;48.810;8.872;2022-11-11T14:41:52;98064.28;;;16.48;55.85
3697;BME280;60662;48.810;8.872;2022-11-11T14:49:51;98058.38;;;18.23;54.22
3697;BME280;60662;48.810;8.872;2022-11-11T14:50:54;98043.22;;;18.26;54.15
3697;BME280;60662;48.810;8.872;2022-11-11T14:52:00;98059.44;;;18.52;53.57
3697;BME280;60662;48.810;8.872;2022-11-11T14:53:15;98062.97;;;18.53;53.72
3697;BME280;60662;48.810;8.872;2022-11-11T14:54:56;98059.88;;;18.60;52.36
3697;BME280;60662;48.810;8.872;2022-11-11T14:55:59;98060.31;;;18.69;53.51
3697;BME280;60662;48.810;8.872;2022-11-11T14:57:05;98066.56;;;18.68;53.75
3697;BME280;60662;48.810;8.872;2022-11-11T14:58:12;98060.72;;;18.61;53.90
3697;BME280;60662;48.810;8.872;2022-11-11T14:59:16;98071.22;;;18.63;54.15
3697;BME280;60662;48.810;8.872;2022-11-11T15:00:22;98068.94;;;18.72;54.04
3697;BME280;60662;48.810;8.872;2022-11-11T15:01:25;98059.78;;;18.62;53.75
3697;BME280;60662;48.810;8.872;2022-11-11T15:02:33;98072.78;;;18.67;53.97
3697;BME280;60662;48.810;8.872;2022-11-11T15:04:46;98074.38;;;18.37;54.67
3697;BME280;60662;48.810;8.872;2022-11-11T15:05:53;98075.50;;;18.16;55.77
3697;BME280;60662;48.810;8.872;2022-11-11T15:06:59;98059.69;;;17.63;57.20
3697;BME280;60662;48.810;8.872;2022-11-11T15:15:10;98084.41;;;15.70;65.31
3697;BME280;60662;48.810;8.872;2022-11-11T15:16:28;98074.31;;;15.38;66.31
3697;BME280;60662;48.810;8.872;2022-11-11T15:21:06;98068.81;;;15.00;67.58
3697;BME280;60662;48.810;8.872;2022-11-11T15:23:41;98070.94;;;14.68;68.57
3697;BME280;60662;48.810;8.872;2022-11-11T15:25:56;98061.63;;;14.35;69.59
3697;BME280;60662;48.810;8.872;2022-11-11T15:30:52;98067.63;;;13.90;71.13
3697;BME280;60662;48.810;8.872;2022-11-11T15:32:32;98074.38;;;13.72;71.66
3697;BME280;60662;48.810;8.872;2022-11-11T15:33:47;98051.88;;;13.39;72.41
3697;BME280;60662;48.810;8.872;2022-11-11T15:34:59;98074.47;;;13.44;72.69
3697;BME280;60662;48.810;8.872;2022-11-11T15:36:30;98067.94;;;13.29;72.88
3697;BME280;60662;48.810;8.872;2022-11-11T15:37:39;98054.47;;;13.13;73.44
3697;BME280;60662;48.810;8.872;2022-11-11T15:38:40;98062.44;;;13.10;73.45
3697;BME280;60662;48.810;8.872;2022-11-11T15:39:50;98069.78;;;12.98;73.83
3697;BME280;60662;48.810;8.872;2022-11-11T15:40:55;98067.47;;;12.89;74.24
3697;BME280;60662;48.810;8.872;2022-11-11T15:42:01;98062.66;;;12.75;74.38
3697;BME280;60662;48.810;8.872;2022-11-11T15:43:09;98066.31;;;12.69;74.79
3697;BME280;60662;48.810;8.872;2022-11-11T15:44:26;98064.94;;;12.57;75.54
3697;BME280;60662;48.810;8.872;2022-11-11T15:45:34;98079.81;;;12.55;75.54
3697;BME280;60662;48.810;8.872;2022-11-11T15:46:39;98078.50;;;12.42;75.95
3697;BME280;60662;48.810;8.872;2022-11-11T15:47:42;98077.63;;;12.41;76.18
3697;BME280;60662;48.810;8.872;2022-11-11T15:48:44;98073.50;;;12.33;76.23
3697;BME280;60662;48.810;8.872;2022-11-11T15:49:47;98066.97;;;12.18;76.56
3697;BME280;60662;48.810;8.872;2022-11-11T15:50:49;98054.31;;;12.01;76.79
3697;BME280;60662;48.810;8.872;2022-11-11T15:51:55;98054.31;;;12.01;76.93
3697;BME280;60662;48.810;8.872;2022-11-11T15:52:58;98076.06;;;12.04;77.23
3697;BME280;60662;48.810;8.872;2022-11-11T15:54:19;98074.59;;;11.92;77.68
3697;BME280;60662;48.810;8.872;2022-11-11T15:55:25;98082.63;;;11.86;77.94
3697;BME280;60662;48.810;8.872;2022-11-11T15:56:31;98086.13;;;11.85;77.85
3697;BME280;60662;48.810;8.872;2022-11-11T15:57:34;98081.00;;;11.82;77.95
3697;BME280;60662;48.810;8.872;2022-11-11T15:58:35;98077.81;;;11.71;78.29
3697;BME280;60662;48.810;8.872;2022-11-11T15:59:37;98081.56;;;11.60;78.86
3697;BME280;60662;48.810;8.872;2022-11-11T16:00:45;98078.00;;;11.63;78.38